sensor_id;sensor_type;location;lat;lon;timestamp;P1;durP1;ratioP1;P2;durP2;ratioP2
31438;SDS011;18062;48.872;9.220;2022-07-12T00:01:57;0.80;;;0.80;;
31438;SDS011;18062;48.872;9.220;2022-07-12T00:04:23;1.30;;;0.90;;
31438;SDS011;18062;48.872;9.220;2022-07-12T00:06:49;0.73;;;0.73;;
31438;SDS011;18062;48.872;9.220;2022-07-12T00:09:16;1.20;;;1.10;;
31438;SDS011;18062;48.872;9.220;2022-07-12T00:11:41;0.83;;;0.83;;
31438;SDS011;18062;48.872;9.220;2022-07-12T00:14:08;0.80;;;0.80;;
31438;SDS011;18062;48.872;9.220;2022-07-12T00:16:34;0.80;;;0.80;;
31438;SDS011;18062;48.872;9.220;2022-07-12T00:19:01;0.80;;;0.80;;
31438;SDS011;18062;48.872;9.220;2022-07-12T00:21:27;0.90;;;0.90;;
31438;SDS011;18062;48.872;9.220;2022-07-12T00:23:53;0.90;;;0.90;;
31438;SDS011;18062;48.872;9.220;2022-07-12T00:26:19;0.80;;;0.80;;
31438;SDS011;18062;48.872;9.220;2022-07-12T00:28:45;0.70;;;0.70;;
31438;SDS011;18062;48.872;9.220;2022-07-12T00:31:12;0.73;;;0.73;;
31438;SDS011;18062;48.872;9.220;2022-07-12T00:33:38;0.80;;;0.80;;
31438;SDS011;18062;48.872;9.220;2022-07-12T00:36:05;0.80;;;0.80;;
31438;SDS011;18062;48.872;9.220;2022-07-12T00:38:31;0.93;;;0.83;;
31438;SDS011;18062;48.872;9.220;2022-07-12T00:40:57;0.67;;;0.67;;
31438;SDS011;18062;48.872;9.220;2022-07-12T00:43:23;0.70;;;0.70;;
31438;SDS011;18062;48.872;9.220;2022-07-12T00:45:49;0.70;;;0.70;;
31438;SDS011;18062;48.872;9.220;2022-07-12T00:48:15;0.87;;;0.87;;
31438;SDS011;18062;48.872;9.220;2022-07-12T00:50:43;0.80;;;0.80;;
31438;SDS011;18062;48.872;9.220;2022-07-12T00:53:09;0.80;;;0.80;;
31438;SDS011;18062;48.872;9.220;2022-07-12T00:55:35;1.20;;;1.10;;
31438;SDS011;18062;48.872;9.220;2022-07-12T00:58:01;0.80;;;0.80;;
31438;SDS011;18062;48.872;9.220;2022-07-12T01:00:27;0.83;;;0.83;;
31438;SDS011;18062;48.872;9.220;2022-07-12T01:02:54;1.47;;;0.80;;
31438;SDS011;18062;48.872;9.220;2022-07-12T01:05:21;0.73;;;0.73;;
31438;SDS011;18062;48.872;9.220;2022-07-12T01:07:47;0.77;;;0.77;;
31438;SDS011;18062;48.872;9.220;2022-07-12T01:10:13;0.67;;;0.67;;
31438;SDS011;18062;48.872;9.220;2022-07-12T01:12:39;0.80;;;0.80;;
31438;SDS011;18062;48.872;9.220;2022-07-12T01:15:06;0.90;;;0.80;;
31438;SDS011;18062;48.872;9.220;2022-07-12T01:17:32;0.90;;;0.90;;
31438;SDS011;18062;48.872;9.220;2022-07-12T01:19:58;0.70;;;0.70;;
31438;SDS011;18062;48.872;9.220;2022-07-12T01:22:31;0.60;;;0.60;;
31438;SDS011;18062;48.872;9.220;2022-07-12T01:24:57;0.73;;;0.73;;
31438;SDS011;18062;48.872;9.220;2022-07-12T01:27:23;0.70;;;0.70;;
31438;SDS011;18062;48.872;9.220;2022-07-12T01:29:49;0.90;;;0.90;;
31438;SDS011;18062;48.872;9.220;2022-07-12T01:32:15;0.90;;;0.90;;
31438;SDS011;18062;48.872;9.220;2022-07-12T01:34:51;1.10;;;1.00;;
31438;SDS011;18062;48.872;9.220;2022-07-12T01:37:18;0.67;;;0.67;;
31438;SDS011;18062;48.872;9.220;2022-07-12T01:39:44;0.70;;;0.70;;
31438;SDS011;18062;48.872;9.220;2022-07-12T01:42:10;1.33;;;1.00;;
31438;SDS011;18062;48.872;9.220;2022-07-12T01:44:36;1.10;;;1.00;;
31438;SDS011;18062;48.872;9.220;2022-07-12T01:47:02;0.93;;;0.90;;
31438;SDS011;18062;48.872;9.220;2022-07-12T01:49:29;0.80;;;0.80;;
31438;SDS011;18062;48.872;9.220;2022-07-12T01:51:55;1.00;;;0.90;;
31438;SDS011;18062;48.872;9.220;2022-07-12T01:54:21;1.23;;;0.80;;
31438;SDS011;18062;48.872;9.220;2022-07-12T01:56:47;0.60;;;0.60;;
31438;SDS011;18062;48.872;9.220;2022-07-12T01:59:13;0.50;;;0.50;;
31438;SDS011;18062;48.872;9.220;2022-07-12T02:01:39;0.80;;;0.70;;
31438;SDS011;18062;48.872;9.220;2022-07-12T02:04:05;1.70;;;0.80;;
31438;SDS011;18062;48.872;9.220;2022-07-12T02:06:32;0.80;;;0.80;;
31438;SDS011;18062;48.872;9.220;2022-07-12T02:08:58;0.80;;;0.80;;
31438;SDS011;18062;48.872;9.220;2022-07-12T02:11:24;0.73;;;0.73;;
31438;SDS011;18062;48.872;9.220;2022-07-12T02:13:50;0.90;;;0.83;;
31438;SDS011;18062;48.872;9.220;2022-07-12T02:16:16;0.80;;;0.80;;
31438;SDS011;18062;48.872;9.220;2022-07-12T02:18:42;0.73;;;0.73;;
31438;SDS011;18062;48.872;9.220;2022-07-12T02:21:08;0.57;;;0.57;;
31438;SDS011;18062;48.872;9.220;2022-07-12T02:23:35;0.70;;;0.70;;
31438;SDS011;18062;48.872;9.220;2022-07-12T02:26:00;1.00;;;1.00;;
31438;SDS011;18062;48.872;9.220;2022-07-12T02:28:26;0.77;;;0.77;;
31438;SDS011;18062;48.872;9.220;2022-07-12T02:30:54;1.27;;;0.80;;
31438;SDS011;18062;48.872;9.220;2022-07-12T02:33:20;0.80;;;0.80;;
31438;SDS011;18062;48.872;9.220;2022-07-12T02:35:46;0.70;;;0.70;;
31438;SDS011;18062;48.872;9.220;2022-07-12T02:38:12;0.70;;;0.70;;
31438;SDS011;18062;48.872;9.220;2022-07-12T02:40:38;0.70;;;0.70;;
31438;SDS011;18062;48.872;9.220;2022-07-12T02:43:24;1.10;;;1.00;;
31438;SDS011;18062;48.872;9.220;2022-07-12T02:45:50;0.80;;;0.80;;
31438;SDS011;18062;48.872;9.220;2022-07-12T02:48:16;0.60;;;0.60;;
31438;SDS011;18062;48.872;9.220;2022-07-12T02:50:43;0.60;;;0.60;;
31438;SDS011;18062;48.872;9.220;2022-07-12T02:53:09;0.50;;;0.50;;
31438;SDS011;18062;48.872;9.220;2022-07-12T02:55:36;0.73;;;0.73;;
31438;SDS011;18062;48.872;9.220;2022-07-12T02:58:02;1.03;;;0.93;;
31438;SDS011;18062;48.872;9.220;2022-07-12T03:00:30;0.80;;;0.80;;
31438;SDS011;18062;48.872;9.220;2022-07-12T03:02:56;0.63;;;0.63;;
31438;SDS011;18062;48.872;9.220;2022-07-12T03:05:22;0.80;;;0.80;;
31438;SDS011;18062;48.872;9.220;2022-07-12T03:07:48;0.83;;;0.60;;
31438;SDS011;18062;48.872;9.220;2022-07-12T03:10:14;0.60;;;0.60;;
31438;SDS011;18062;48.872;9.220;2022-07-12T03:12:41;0.70;;;0.70;;
31438;SDS011;18062;48.872;9.220;2022-07-12T03:15:07;1.10;;;0.83;;
31438;SDS011;18062;48.872;9.220;2022-07-12T03:17:33;0.80;;;0.80;;
31438;SDS011;18062;48.872;9.220;2022-07-12T03:20:00;0.70;;;0.70;;
31438;SDS011;18062;48.872;9.220;2022-07-12T03:22:26;0.83;;;0.80;;
31438;SDS011;18062;48.872;9.220;2022-07-12T03:24:52;0.70;;;0.70;;
31438;SDS011;18062;48.872;9.220;2022-07-12T03:27:18;0.90;;;0.90;;
31438;SDS011;18062;48.872;9.220;2022-07-12T03:29:44;0.80;;;0.80;;
31438;SDS011;18062;48.872;9.220;2022-07-12T03:32:10;0.80;;;0.80;;
31438;SDS011;18062;48.872;9.220;2022-07-12T03:34:37;0.50;;;0.50;;
31438;SDS011;18062;48.872;9.220;2022-07-12T03:37:03;0.73;;;0.73;;
31438;SDS011;18062;48.872;9.220;2022-07-12T03:39:29;0.80;;;0.70;;
31438;SDS011;18062;48.872;9.220;2022-07-12T03:41:55;0.60;;;0.60;;
31438;SDS011;18062;48.872;9.220;2022-07-12T03:44:21;0.80;;;0.80;;
31438;SDS011;18062;48.872;9.220;2022-07-12T03:46:47;0.80;;;0.80;;
31438;SDS011;18062;48.872;9.220;2022-07-12T03:49:14;1.43;;;0.70;;
31438;SDS011;18062;48.872;9.220;2022-07-12T03:51:40;0.60;;;0.60;;
31438;SDS011;18062;48.872;9.220;2022-07-12T03:54:06;0.73;;;0.70;;
31438;SDS011;18062;48.872;9.220;2022-07-12T03:56:33;0.80;;;0.80;;
31438;SDS011;18062;48.872;9.220;2022-07-12T03:59:18;1.00;;;0.90;;
31438;SDS011;18062;48.872;9.220;2022-07-12T04:01:44;0.70;;;0.70;;
31438;SDS011;18062;48.872;9.220;2022-07-12T04:04:10;0.80;;;0.77;;
31438;SDS011;18062;48.872;9.220;2022-07-12T04:06:36;0.90;;;0.90;;
31438;SDS011;18062;48.872;9.220;2022-07-12T04:09:03;0.93;;;0.83;;
31438;SDS011;18062;48.872;9.220;2022-07-12T04:11:29;0.90;;;0.90;;
31438;SDS011;18062;48.872;9.220;2022-07-12T04:13:55;1.03;;;0.93;;
31438;SDS011;18062;48.872;9.220;2022-07-12T04:16:21;0.80;;;0.80;;
31438;SDS011;18062;48.872;9.220;2022-07-12T04:18:47;0.93;;;0.80;;
31438;SDS011;18062;48.872;9.220;2022-07-12T04:21:13;0.60;;;0.60;;
31438;SDS011;18062;48.872;9.220;2022-07-12T04:23:39;0.87;;;0.80;;
31438;SDS011;18062;48.872;9.220;2022-07-12T04:26:05;0.90;;;0.87;;
31438;SDS011;18062;48.872;9.220;2022-07-12T04:28:31;0.80;;;0.80;;
31438;SDS011;18062;48.872;9.220;2022-07-12T04:30:57;0.70;;;0.70;;
31438;SDS011;18062;48.872;9.220;2022-07-12T04:33:23;0.73;;;0.73;;
31438;SDS011;18062;48.872;9.220;2022-07-12T04:35:49;0.70;;;0.70;;
31438;SDS011;18062;48.872;9.220;2022-07-12T04:38:15;0.87;;;0.77;;
31438;SDS011;18062;48.872;9.220;2022-07-12T04:40:41;1.23;;;1.13;;
31438;SDS011;18062;48.872;9.220;2022-07-12T04:43:07;1.60;;;1.03;;
31438;SDS011;18062;48.872;9.220;2022-07-12T04:45:33;0.90;;;0.90;;
31438;SDS011;18062;48.872;9.220;2022-07-12T04:47:59;1.30;;;0.80;;
31438;SDS011;18062;48.872;9.220;2022-07-12T04:50:26;0.80;;;0.80;;
31438;SDS011;18062;48.872;9.220;2022-07-12T04:52:52;0.90;;;0.90;;
31438;SDS011;18062;48.872;9.220;2022-07-12T04:55:18;0.80;;;0.80;;
31438;SDS011;18062;48.872;9.220;2022-07-12T04:57:44;0.70;;;0.70;;
31438;SDS011;18062;48.872;9.220;2022-07-12T05:00:10;0.70;;;0.70;;
31438;SDS011;18062;48.872;9.220;2022-07-12T05:02:36;1.00;;;0.90;;
31438;SDS011;18062;48.872;9.220;2022-07-12T05:05:02;0.90;;;0.90;;
31438;SDS011;18062;48.872;9.220;2022-07-12T05:07:28;1.10;;;1.00;;
31438;SDS011;18062;48.872;9.220;2022-07-12T05:09:55;0.77;;;0.77;;
31438;SDS011;18062;48.872;9.220;2022-07-12T05:12:21;1.10;;;1.00;;
31438;SDS011;18062;48.872;9.220;2022-07-12T05:14:47;0.80;;;0.80;;
31438;SDS011;18062;48.872;9.220;2022-07-12T05:17:13;0.70;;;0.70;;
31438;SDS011;18062;48.872;9.220;2022-07-12T05:19:39;0.70;;;0.70;;
31438;SDS011;18062;48.872;9.220;2022-07-12T05:22:06;1.37;;;1.27;;
31438;SDS011;18062;48.872;9.220;2022-07-12T05:24:32;0.80;;;0.80;;
31438;SDS011;18062;48.872;9.220;2022-07-12T05:26:58;0.83;;;0.77;;
31438;SDS011;18062;48.872;9.220;2022-07-12T05:29:25;0.90;;;0.90;;
31438;SDS011;18062;48.872;9.220;2022-07-12T05:31:54;0.87;;;0.80;;
31438;SDS011;18062;48.872;9.220;2022-07-12T05:34:20;0.90;;;0.90;;
31438;SDS011;18062;48.872;9.220;2022-07-12T05:36:46;1.20;;;1.07;;
31438;SDS011;18062;48.872;9.220;2022-07-12T05:39:12;1.40;;;1.30;;
31438;SDS011;18062;48.872;9.220;2022-07-12T05:41:38;1.20;;;1.10;;
31438;SDS011;18062;48.872;9.220;2022-07-12T05:44:04;1.37;;;1.27;;
31438;SDS011;18062;48.872;9.220;2022-07-12T05:46:30;1.13;;;1.03;;
31438;SDS011;18062;48.872;9.220;2022-07-12T05:48:57;1.23;;;1.13;;
31438;SDS011;18062;48.872;9.220;2022-07-12T05:51:23;0.90;;;0.90;;
31438;SDS011;18062;48.872;9.220;2022-07-12T05:54:07;1.00;;;1.00;;
31438;SDS011;18062;48.872;9.220;2022-07-12T05:56:35;1.30;;;1.20;;
31438;SDS011;18062;48.872;9.220;2022-07-12T05:59:01;0.90;;;0.90;;
31438;SDS011;18062;48.872;9.220;2022-07-12T06:01:28;0.90;;;0.90;;
31438;SDS011;18062;48.872;9.220;2022-07-12T06:03:54;1.73;;;1.20;;
31438;SDS011;18062;48.872;9.220;2022-07-12T06:06:20;1.80;;;1.40;;
31438;SDS011;18062;48.872;9.220;2022-07-12T06:08:46;1.20;;;1.03;;
31438;SDS011;18062;48.872;9.220;2022-07-12T06:11:12;1.10;;;1.03;;
31438;SDS011;18062;48.872;9.220;2022-07-12T06:13:38;1.20;;;1.10;;
31438;SDS011;18062;48.872;9.220;2022-07-12T06:16:05;0.90;;;0.90;;
31438;SDS011;18062;48.872;9.220;2022-07-12T06:18:31;0.90;;;0.90;;
31438;SDS011;18062;48.872;9.220;2022-07-12T06:20:57;1.00;;;0.90;;
31438;SDS011;18062;48.872;9.220;2022-07-12T06:23:23;1.30;;;1.20;;
31438;SDS011;18062;48.872;9.220;2022-07-12T06:25:49;1.07;;;1.00;;
31438;SDS011;18062;48.872;9.220;2022-07-12T06:28:15;0.80;;;0.80;;
31438;SDS011;18062;48.872;9.220;2022-07-12T06:30:41;0.83;;;0.83;;
31438;SDS011;18062;48.872;9.220;2022-07-12T06:33:07;0.83;;;0.83;;
31438;SDS011;18062;48.872;9.220;2022-07-12T06:35:33;0.90;;;0.90;;
31438;SDS011;18062;48.872;9.220;2022-07-12T06:38:00;0.70;;;0.70;;
31438;SDS011;18062;48.872;9.220;2022-07-12T06:40:26;0.93;;;0.83;;
31438;SDS011;18062;48.872;9.220;2022-07-12T06:42:52;0.80;;;0.80;;
31438;SDS011;18062;48.872;9.220;2022-07-12T06:45:18;0.70;;;0.70;;
31438;SDS011;18062;48.872;9.220;2022-07-12T06:47:44;0.80;;;0.80;;
31438;SDS011;18062;48.872;9.220;2022-07-12T06:50:10;0.60;;;0.60;;
31438;SDS011;18062;48.872;9.220;2022-07-12T06:52:36;0.70;;;0.70;;
31438;SDS011;18062;48.872;9.220;2022-07-12T06:55:02;0.80;;;0.80;;
31438;SDS011;18062;48.872;9.220;2022-07-12T06:57:28;0.50;;;0.50;;
31438;SDS011;18062;48.872;9.220;2022-07-12T06:59:58;0.60;;;0.60;;
31438;SDS011;18062;48.872;9.220;2022-07-12T07:02:24;0.70;;;0.70;;
31438;SDS011;18062;48.872;9.220;2022-07-12T07:04:50;0.60;;;0.60;;
31438;SDS011;18062;48.872;9.220;2022-07-12T07:07:17;0.57;;;0.57;;
31438;SDS011;18062;48.872;9.220;2022-07-12T07:09:43;0.50;;;0.50;;
31438;SDS011;18062;48.872;9.220;2022-07-12T07:12:09;0.60;;;0.60;;
31438;SDS011;18062;48.872;9.220;2022-07-12T07:14:35;0.63;;;0.57;;
31438;SDS011;18062;48.872;9.220;2022-07-12T07:17:01;0.50;;;0.50;;
31438;SDS011;18062;48.872;9.220;2022-07-12T07:19:27;0.50;;;0.50;;
31438;SDS011;18062;48.872;9.220;2022-07-12T07:21:53;0.53;;;0.53;;
31438;SDS011;18062;48.872;9.220;2022-07-12T07:24:20;0.40;;;0.40;;
31438;SDS011;18062;48.872;9.220;2022-07-12T07:26:47;0.43;;;0.43;;
31438;SDS011;18062;48.872;9.220;2022-07-12T07:29:13;0.40;;;0.40;;
31438;SDS011;18062;48.872;9.220;2022-07-12T07:31:57;0.40;;;0.40;;
31438;SDS011;18062;48.872;9.220;2022-07-12T07:34:23;0.50;;;0.50;;
31438;SDS011;18062;48.872;9.220;2022-07-12T07:36:50;0.40;;;0.40;;
31438;SDS011;18062;48.872;9.220;2022-07-12T07:39:16;0.57;;;0.57;;
31438;SDS011;18062;48.872;9.220;2022-07-12T07:41:43;0.50;;;0.50;;
31438;SDS011;18062;48.872;9.220;2022-07-12T07:44:09;0.70;;;0.70;;
31438;SDS011;18062;48.872;9.220;2022-07-12T07:46:35;0.53;;;0.53;;
31438;SDS011;18062;48.872;9.220;2022-07-12T07:49:01;0.40;;;0.40;;
31438;SDS011;18062;48.872;9.220;2022-07-12T07:51:27;0.40;;;0.40;;
31438;SDS011;18062;48.872;9.220;2022-07-12T07:53:53;0.40;;;0.40;;
31438;SDS011;18062;48.872;9.220;2022-07-12T07:56:19;0.50;;;0.50;;
31438;SDS011;18062;48.872;9.220;2022-07-12T07:58:45;0.50;;;0.50;;
31438;SDS011;18062;48.872;9.220;2022-07-12T08:01:11;0.40;;;0.40;;
31438;SDS011;18062;48.872;9.220;2022-07-12T08:03:37;0.40;;;0.40;;
31438;SDS011;18062;48.872;9.220;2022-07-12T08:06:04;0.40;;;0.40;;
31438;SDS011;18062;48.872;9.220;2022-07-12T08:08:30;0.40;;;0.40;;
31438;SDS011;18062;48.872;9.220;2022-07-12T08:10:56;0.40;;;0.40;;
31438;SDS011;18062;48.872;9.220;2022-07-12T08:13:22;0.50;;;0.50;;
31438;SDS011;18062;48.872;9.220;2022-07-12T08:15:48;0.40;;;0.40;;
31438;SDS011;18062;48.872;9.220;2022-07-12T08:18:15;0.40;;;0.40;;
31438;SDS011;18062;48.872;9.220;2022-07-12T08:20:41;0.57;;;0.57;;
31438;SDS011;18062;48.872;9.220;2022-07-12T08:23:07;0.30;;;0.30;;
31438;SDS011;18062;48.872;9.220;2022-07-12T08:25:33;0.40;;;0.40;;
31438;SDS011;18062;48.872;9.220;2022-07-12T08:27:59;0.50;;;0.50;;
31438;SDS011;18062;48.872;9.220;2022-07-12T08:30:25;0.83;;;0.80;;
31438;SDS011;18062;48.872;9.220;2022-07-12T08:32:51;0.60;;;0.60;;
31438;SDS011;18062;48.872;9.220;2022-07-12T08:35:19;0.43;;;0.43;;
31438;SDS011;18062;48.872;9.220;2022-07-12T08:37:45;0.60;;;0.60;;
31438;SDS011;18062;48.872;9.220;2022-07-12T08:40:11;0.33;;;0.33;;
31438;SDS011;18062;48.872;9.220;2022-07-12T08:42:41;0.33;;;0.33;;
31438;SDS011;18062;48.872;9.220;2022-07-12T08:45:08;0.60;;;0.50;;
31438;SDS011;18062;48.872;9.220;2022-07-12T08:47:34;0.43;;;0.43;;
31438;SDS011;18062;48.872;9.220;2022-07-12T08:50:16;0.60;;;0.50;;
31438;SDS011;18062;48.872;9.220;2022-07-12T08:52:43;0.50;;;0.50;;
31438;SDS011;18062;48.872;9.220;2022-07-12T08:57:43;0.32;;;0.32;;
31438;SDS011;18062;48.872;9.220;2022-07-12T09:00:09;0.40;;;0.40;;
31438;SDS011;18062;48.872;9.220;2022-07-12T09:02:42;0.40;;;0.40;;
31438;SDS011;18062;48.872;9.220;2022-07-12T09:05:10;0.40;;;0.40;;
31438;SDS011;18062;48.872;9.220;2022-07-12T09:07:37;0.40;;;0.40;;
31438;SDS011;18062;48.872;9.220;2022-07-12T09:10:03;0.40;;;0.40;;
31438;SDS011;18062;48.872;9.220;2022-07-12T09:12:29;0.40;;;0.40;;
31438;SDS011;18062;48.872;9.220;2022-07-12T09:14:59;0.38;;;0.38;;
31438;SDS011;18062;48.872;9.220;2022-07-12T09:17:35;0.30;;;0.30;;
31438;SDS011;18062;48.872;9.220;2022-07-12T09:20:02;0.40;;;0.40;;
31438;SDS011;18062;48.872;9.220;2022-07-12T09:22:29;0.32;;;0.32;;
31438;SDS011;18062;48.872;9.220;2022-07-12T09:24:55;0.40;;;0.40;;
31438;SDS011;18062;48.872;9.220;2022-07-12T09:27:24;0.43;;;0.43;;
31438;SDS011;18062;48.872;9.220;2022-07-12T09:29:50;0.50;;;0.50;;
31438;SDS011;18062;48.872;9.220;2022-07-12T09:32:17;0.30;;;0.30;;
31438;SDS011;18062;48.872;9.220;2022-07-12T09:35:02;0.40;;;0.40;;
31438;SDS011;18062;48.872;9.220;2022-07-12T09:37:47;0.40;;;0.40;;
31438;SDS011;18062;48.872;9.220;2022-07-12T09:40:13;0.40;;;0.40;;
31438;SDS011;18062;48.872;9.220;2022-07-12T09:42:39;0.43;;;0.40;;
31438;SDS011;18062;48.872;9.220;2022-07-12T09:45:09;0.40;;;0.40;;
31438;SDS011;18062;48.872;9.220;2022-07-12T09:47:35;0.50;;;0.50;;
31438;SDS011;18062;48.872;9.220;2022-07-12T09:50:03;0.47;;;0.47;;
31438;SDS011;18062;48.872;9.220;2022-07-12T09:52:29;0.85;;;0.85;;
31438;SDS011;18062;48.872;9.220;2022-07-12T09:54:55;0.50;;;0.50;;
31438;SDS011;18062;48.872;9.220;2022-07-12T09:57:25;0.88;;;0.88;;
31438;SDS011;18062;48.872;9.220;2022-07-12T09:59:51;0.50;;;0.50;;
31438;SDS011;18062;48.872;9.220;2022-07-12T10:02:18;0.45;;;0.45;;
31438;SDS011;18062;48.872;9.220;2022-07-12T10:04:46;0.38;;;0.38;;
31438;SDS011;18062;48.872;9.220;2022-07-12T10:07:12;0.30;;;0.30;;
31438;SDS011;18062;48.872;9.220;2022-07-12T10:09:39;0.40;;;0.40;;
31438;SDS011;18062;48.872;9.220;2022-07-12T10:12:06;0.40;;;0.40;;
31438;SDS011;18062;48.872;9.220;2022-07-12T10:14:33;0.40;;;0.40;;
31438;SDS011;18062;48.872;9.220;2022-07-12T10:17:00;0.40;;;0.40;;
31438;SDS011;18062;48.872;9.220;2022-07-12T10:19:28;0.50;;;0.50;;
31438;SDS011;18062;48.872;9.220;2022-07-12T10:21:58;0.40;;;0.40;;
31438;SDS011;18062;48.872;9.220;2022-07-12T10:27:26;0.40;;;0.40;;
31438;SDS011;18062;48.872;9.220;2022-07-12T10:29:50;0.40;;;0.40;;
31438;SDS011;18062;48.872;9.220;2022-07-12T10:32:34;0.40;;;0.40;;
31438;SDS011;18062;48.872;9.220;2022-07-12T10:35:04;0.38;;;0.38;;
31438;SDS011;18062;48.872;9.220;2022-07-12T10:37:30;0.50;;;0.50;;
31438;SDS011;18062;48.872;9.220;2022-07-12T10:40:16;0.50;;;0.50;;
31438;SDS011;18062;48.872;9.220;2022-07-12T10:45:34;0.50;;;0.50;;
31438;SDS011;18062;48.872;9.220;2022-07-12T10:48:02;0.40;;;0.40;;
31438;SDS011;18062;48.872;9.220;2022-07-12T10:58:33;1.75;;;0.40;;
31438;SDS011;18062;48.872;9.220;2022-07-12T11:01:00;0.50;;;0.50;;
31438;SDS011;18062;48.872;9.220;2022-07-12T11:03:31;0.43;;;0.43;;
31438;SDS011;18062;48.872;9.220;2022-07-12T11:06:01;0.40;;;0.40;;
31438;SDS011;18062;48.872;9.220;2022-07-12T11:08:30;0.50;;;0.50;;
31438;SDS011;18062;48.872;9.220;2022-07-12T11:10:57;0.40;;;0.40;;
31438;SDS011;18062;48.872;9.220;2022-07-12T11:13:24;0.40;;;0.40;;
31438;SDS011;18062;48.872;9.220;2022-07-12T11:16:00;0.30;;;0.30;;
31438;SDS011;18062;48.872;9.220;2022-07-12T11:18:33;0.50;;;0.50;;
31438;SDS011;18062;48.872;9.220;2022-07-12T11:21:00;0.40;;;0.40;;
31438;SDS011;18062;48.872;9.220;2022-07-12T11:23:26;0.50;;;0.50;;
31438;SDS011;18062;48.872;9.220;2022-07-12T11:25:56;0.40;;;0.40;;
31438;SDS011;18062;48.872;9.220;2022-07-12T11:28:31;0.50;;;0.50;;
31438;SDS011;18062;48.872;9.220;2022-07-12T11:31:02;0.50;;;0.50;;
31438;SDS011;18062;48.872;9.220;2022-07-12T11:33:33;0.50;;;0.50;;
31438;SDS011;18062;48.872;9.220;2022-07-12T11:36:02;0.63;;;0.50;;
31438;SDS011;18062;48.872;9.220;2022-07-12T11:38:29;0.50;;;0.50;;
31438;SDS011;18062;48.872;9.220;2022-07-12T11:40:55;0.50;;;0.50;;
31438;SDS011;18062;48.872;9.220;2022-07-12T11:43:22;0.60;;;0.60;;
31438;SDS011;18062;48.872;9.220;2022-07-12T11:45:51;0.50;;;0.50;;
31438;SDS011;18062;48.872;9.220;2022-07-12T11:48:18;0.47;;;0.47;;
31438;SDS011;18062;48.872;9.220;2022-07-12T11:50:44;0.40;;;0.40;;
31438;SDS011;18062;48.872;9.220;2022-07-12T11:53:21;0.40;;;0.40;;
31438;SDS011;18062;48.872;9.220;2022-07-12T11:55:48;0.40;;;0.40;;
31438;SDS011;18062;48.872;9.220;2022-07-12T11:58:20;0.45;;;0.45;;
31438;SDS011;18062;48.872;9.220;2022-07-12T12:00:53;0.40;;;0.40;;
31438;SDS011;18062;48.872;9.220;2022-07-12T12:03:19;0.50;;;0.50;;
31438;SDS011;18062;48.872;9.220;2022-07-12T12:05:50;0.40;;;0.40;;
31438;SDS011;18062;48.872;9.220;2022-07-12T12:08:16;0.50;;;0.50;;
31438;SDS011;18062;48.872;9.220;2022-07-12T12:10:51;0.50;;;0.50;;
31438;SDS011;18062;48.872;9.220;2022-07-12T12:13:17;0.40;;;0.40;;
31438;SDS011;18062;48.872;9.220;2022-07-12T12:15:54;0.40;;;0.40;;
31438;SDS011;18062;48.872;9.220;2022-07-12T12:20:59;0.50;;;0.50;;
31438;SDS011;18062;48.872;9.220;2022-07-12T12:23:26;0.50;;;0.50;;
31438;SDS011;18062;48.872;9.220;2022-07-12T12:25:52;0.50;;;0.50;;
31438;SDS011;18062;48.872;9.220;2022-07-12T12:28:18;0.40;;;0.40;;
31438;SDS011;18062;48.872;9.220;2022-07-12T12:30:59;0.50;;;0.50;;
31438;SDS011;18062;48.872;9.220;2022-07-12T12:36:13;0.52;;;0.52;;
31438;SDS011;18062;48.872;9.220;2022-07-12T12:38:39;0.45;;;0.45;;
31438;SDS011;18062;48.872;9.220;2022-07-12T12:41:07;0.55;;;0.50;;
31438;SDS011;18062;48.872;9.220;2022-07-12T12:43:33;0.57;;;0.57;;
31438;SDS011;18062;48.872;9.220;2022-07-12T12:45:59;0.50;;;0.50;;
31438;SDS011;18062;48.872;9.220;2022-07-12T12:48:26;0.43;;;0.43;;
31438;SDS011;18062;48.872;9.220;2022-07-12T12:50:53;0.50;;;0.50;;
31438;SDS011;18062;48.872;9.220;2022-07-12T12:53:21;0.38;;;0.38;;
31438;SDS011;18062;48.872;9.220;2022-07-12T12:55:51;0.50;;;0.50;;
31438;SDS011;18062;48.872;9.220;2022-07-12T12:58:17;0.52;;;0.52;;
31438;SDS011;18062;48.872;9.220;2022-07-12T13:00:44;0.50;;;0.50;;
31438;SDS011;18062;48.872;9.220;2022-07-12T13:03:11;0.60;;;0.60;;
31438;SDS011;18062;48.872;9.220;2022-07-12T13:05:38;0.60;;;0.60;;
31438;SDS011;18062;48.872;9.220;2022-07-12T13:08:04;0.50;;;0.50;;
31438;SDS011;18062;48.872;9.220;2022-07-12T13:10:31;0.50;;;0.50;;
31438;SDS011;18062;48.872;9.220;2022-07-12T13:12:57;0.50;;;0.50;;
31438;SDS011;18062;48.872;9.220;2022-07-12T13:15:27;0.60;;;0.60;;
31438;SDS011;18062;48.872;9.220;2022-07-12T13:17:56;0.50;;;0.50;;
31438;SDS011;18062;48.872;9.220;2022-07-12T13:20:25;0.57;;;0.57;;
31438;SDS011;18062;48.872;9.220;2022-07-12T13:22:52;0.50;;;0.50;;
31438;SDS011;18062;48.872;9.220;2022-07-12T13:25:18;0.60;;;0.60;;
31438;SDS011;18062;48.872;9.220;2022-07-12T13:27:44;0.60;;;0.60;;
31438;SDS011;18062;48.872;9.220;2022-07-12T13:30:12;0.50;;;0.50;;
31438;SDS011;18062;48.872;9.220;2022-07-12T13:32:38;0.57;;;0.57;;
31438;SDS011;18062;48.872;9.220;2022-07-12T13:35:05;0.65;;;0.65;;
31438;SDS011;18062;48.872;9.220;2022-07-12T13:37:32;0.57;;;0.57;;
31438;SDS011;18062;48.872;9.220;2022-07-12T13:39:58;0.50;;;0.50;;
31438;SDS011;18062;48.872;9.220;2022-07-12T13:42:46;0.60;;;0.60;;
31438;SDS011;18062;48.872;9.220;2022-07-12T13:45:22;0.60;;;0.60;;
31438;SDS011;18062;48.872;9.220;2022-07-12T13:47:52;0.50;;;0.50;;
31438;SDS011;18062;48.872;9.220;2022-07-12T13:50:22;0.70;;;0.70;;
31438;SDS011;18062;48.872;9.220;2022-07-12T13:52:48;0.60;;;0.60;;
31438;SDS011;18062;48.872;9.220;2022-07-12T13:55:15;0.50;;;0.50;;
31438;SDS011;18062;48.872;9.220;2022-07-12T13:57:41;0.60;;;0.60;;
31438;SDS011;18062;48.872;9.220;2022-07-12T14:00:09;0.70;;;0.70;;
31438;SDS011;18062;48.872;9.220;2022-07-12T14:02:37;0.60;;;0.60;;
31438;SDS011;18062;48.872;9.220;2022-07-12T14:05:04;0.60;;;0.60;;
31438;SDS011;18062;48.872;9.220;2022-07-12T14:07:30;0.60;;;0.60;;
31438;SDS011;18062;48.872;9.220;2022-07-12T14:09:56;0.55;;;0.55;;
31438;SDS011;18062;48.872;9.220;2022-07-12T14:12:23;0.60;;;0.60;;
31438;SDS011;18062;48.872;9.220;2022-07-12T14:14:49;0.52;;;0.52;;
31438;SDS011;18062;48.872;9.220;2022-07-12T14:17:34;0.60;;;0.60;;
31438;SDS011;18062;48.872;9.220;2022-07-12T14:20:00;0.60;;;0.60;;
31438;SDS011;18062;48.872;9.220;2022-07-12T14:22:27;0.50;;;0.50;;
31438;SDS011;18062;48.872;9.220;2022-07-12T14:24:54;0.55;;;0.55;;
31438;SDS011;18062;48.872;9.220;2022-07-12T14:27:20;0.50;;;0.50;;
31438;SDS011;18062;48.872;9.220;2022-07-12T14:29:46;0.60;;;0.60;;
31438;SDS011;18062;48.872;9.220;2022-07-12T14:32:12;0.70;;;0.70;;
31438;SDS011;18062;48.872;9.220;2022-07-12T14:34:38;0.60;;;0.60;;
31438;SDS011;18062;48.872;9.220;2022-07-12T14:37:04;0.60;;;0.60;;
31438;SDS011;18062;48.872;9.220;2022-07-12T14:39:30;0.50;;;0.50;;
31438;SDS011;18062;48.872;9.220;2022-07-12T14:41:56;0.60;;;0.60;;
31438;SDS011;18062;48.872;9.220;2022-07-12T14:44:24;0.60;;;0.60;;
31438;SDS011;18062;48.872;9.220;2022-07-12T14:46:50;0.50;;;0.50;;
31438;SDS011;18062;48.872;9.220;2022-07-12T14:49:18;0.50;;;0.50;;
31438;SDS011;18062;48.872;9.220;2022-07-12T14:51:44;0.68;;;0.68;;
31438;SDS011;18062;48.872;9.220;2022-07-12T14:54:10;0.70;;;0.70;;
31438;SDS011;18062;48.872;9.220;2022-07-12T14:56:36;0.60;;;0.60;;
31438;SDS011;18062;48.872;9.220;2022-07-12T14:59:02;0.40;;;0.40;;
31438;SDS011;18062;48.872;9.220;2022-07-12T15:01:28;0.70;;;0.70;;
31438;SDS011;18062;48.872;9.220;2022-07-12T15:03:54;0.60;;;0.60;;
31438;SDS011;18062;48.872;9.220;2022-07-12T15:06:20;0.60;;;0.60;;
31438;SDS011;18062;48.872;9.220;2022-07-12T15:08:47;0.70;;;0.70;;
31438;SDS011;18062;48.872;9.220;2022-07-12T15:11:13;0.50;;;0.50;;